TimeCDT,TemperatureF,Dew PointF,Humidity,Sea Level PressureIn,VisibilityMPH,Wind Direction,Wind SpeedMPH,Gust SpeedMPH,PrecipitationIn,Events,Conditions,WindDirDegrees,DateUTC
12:15 AM,79.7,63.7,58,29.95,10.0,Calm,Calm,-,N/A,,Mostly Cloudy,0,2013-07-13 05:15:00
12:35 AM,80.1,63.5,57,29.93,10.0,Calm,Calm,-,N/A,,Scattered Clouds,0,2013-07-13 05:35:00
12:55 AM,79.2,63.7,59,29.93,10.0,Calm,Calm,-,N/A,,Scattered Clouds,0,2013-07-13 05:55:00
1:15 AM,77.2,64.4,65,29.95,10.0,WNW,4.6,-,N/A,,Mostly Cloudy,290,2013-07-13 06:15:00
1:35 AM,77.4,65.1,66,29.95,10.0,West,4.6,-,N/A,,Scattered Clouds,280,2013-07-13 06:35:00
1:55 AM,77.9,65.3,65,29.97,10.0,WNW,12.7,18.4,N/A,,Scattered Clouds,290,2013-07-13 06:55:00
2:15 AM,78.8,63.7,60,29.99,10.0,NW,19.6,25.3,N/A,,Clear,310,2013-07-13 07:15:00
2:35 AM,74.8,61.7,64,29.98,10.0,NW,28.8,39.1,N/A,,Clear,320,2013-07-13 07:35:00
2:55 AM,74.7,60.8,62,29.98,10.0,NNW,25.3,32.2,N/A,,Clear,340,2013-07-13 07:55:00
3:15 AM,75.4,59.9,58,29.96,10.0,North,17.3,26.5,N/A,,Clear,350,2013-07-13 08:15:00
3:35 AM,74.7,60.1,60,29.97,10.0,North,13.8,20.7,N/A,,Clear,350,2013-07-13 08:35:00
3:55 AM,73.6,60.4,63,29.98,10.0,North,9.2,-,N/A,,Clear,350,2013-07-13 08:55:00
4:15 AM,73.4,60.3,63,29.97,10.0,North,6.9,-,N/A,,Clear,10,2013-07-13 09:15:00
4:35 AM,73.8,59.9,62,29.96,10.0,NE,5.8,-,N/A,,Clear,40,2013-07-13 09:35:00
4:55 AM,73.0,59.9,63,29.96,10.0,NNE,4.6,-,N/A,,Clear,30,2013-07-13 09:55:00
5:15 AM,72.5,60.3,65,29.96,10.0,NE,6.9,-,N/A,,Clear,50,2013-07-13 10:15:00
5:35 AM,71.6,60.4,68,29.96,10.0,East,5.8,-,N/A,,Clear,100,2013-07-13 10:35:00
5:55 AM,72.5,60.4,66,29.96,10.0,East,5.8,-,N/A,,Clear,90,2013-07-13 10:55:00
6:15 AM,72.5,60.3,65,29.96,10.0,East,4.6,-,N/A,,Clear,100,2013-07-13 11:15:00
6:35 AM,72.0,60.4,67,29.97,10.0,Calm,Calm,-,N/A,,Clear,0,2013-07-13 11:35:00
6:55 AM,71.6,60.8,69,29.97,10.0,Calm,Calm,-,N/A,,Clear,0,2013-07-13 11:55:00
7:15 AM,71.6,61.7,71,29.97,10.0,Calm,Calm,-,N/A,,Clear,0,2013-07-13 12:15:00
7:35 AM,72.5,62.1,70,29.96,10.0,Calm,Calm,-,N/A,,Clear,0,2013-07-13 12:35:00
7:55 AM,73.9,61.2,64,29.96,10.0,Calm,Calm,-,N/A,,Clear,0,2013-07-13 12:55:00
8:15 AM,74.3,60.8,63,29.98,10.0,Calm,Calm,-,N/A,,Clear,0,2013-07-13 13:15:00
8:35 AM,74.3,62.4,66,29.98,10.0,NW,4.6,-,N/A,,Clear,310,2013-07-13 13:35:00
8:55 AM,75.2,62.1,64,29.99,10.0,NW,3.5,-,N/A,,Clear,320,2013-07-13 13:55:00
9:15 AM,76.3,61.7,60,29.99,10.0,Calm,Calm,-,N/A,,Clear,0,2013-07-13 14:15:00
9:35 AM,77.2,62.8,61,29.99,10.0,Calm,Calm,-,N/A,,Clear,0,2013-07-13 14:35:00
9:55 AM,78.8,63.1,59,29.99,10.0,North,5.8,-,N/A,,Clear,360,2013-07-13 14:55:00
10:15 AM,79.3,63.9,59,29.99,10.0,NNE,5.8,-,N/A,,Clear,20,2013-07-13 15:15:00
10:35 AM,79.2,63.7,59,29.99,10.0,North,5.8,-,N/A,,Clear,350,2013-07-13 15:35:00
10:55 AM,79.9,63.9,58,29.99,10.0,North,4.6,-,N/A,,Clear,350,2013-07-13 15:55:00
11:15 AM,81.5,64.4,56,29.99,10.0,NE,8.1,-,N/A,,Clear,40,2013-07-13 16:15:00
11:35 AM,80.8,64.9,58,29.98,10.0,ENE,6.9,-,N/A,,Clear,70,2013-07-13 16:35:00
11:55 AM,82.2,65.7,57,29.99,10.0,NNE,6.9,-,N/A,,Clear,30,2013-07-13 16:55:00
12:15 PM,82.8,65.5,56,29.99,10.0,NNE,5.8,-,N/A,,Clear,20,2013-07-13 17:15:00
12:35 PM,83.5,66.2,56,29.99,10.0,North,3.5,-,N/A,,Clear,10,2013-07-13 17:35:00
12:55 PM,85.6,66.2,52,29.99,10.0,NE,5.8,-,N/A,,Clear,40,2013-07-13 17:55:00
1:15 PM,87.3,66.0,49,29.98,10.0,ENE,4.6,-,N/A,,Clear,70,2013-07-13 18:15:00
1:35 PM,87.3,65.3,48,29.98,10.0,NNW,3.5,-,N/A,,Clear,340,2013-07-13 18:35:00
1:55 PM,87.8,65.3,47,29.98,10.0,North,6.9,-,N/A,,Clear,10,2013-07-13 18:55:00
2:15 PM,87.6,65.3,47,29.99,10.0,North,8.1,-,N/A,,Clear,10,2013-07-13 19:15:00
2:35 PM,87.8,65.7,48,29.98,10.0,NNE,8.1,-,N/A,,Clear,30,2013-07-13 19:35:00
2:55 PM,88.0,65.7,47,29.98,10.0,NNE,8.1,-,N/A,Thunderstorm,Clear,30,2013-07-13 19:55:00
3:15 PM,87.8,66.4,49,29.98,10.0,NE,9.2,-,N/A,,Clear,40,2013-07-13 20:15:00
3:35 PM,87.4,66.7,50,29.98,10.0,ENE,6.9,-,N/A,,Clear,60,2013-07-13 20:35:00
3:55 PM,89.8,67.1,47,29.97,10.0,ENE,10.4,16.1,N/A,,Clear,70,2013-07-13 20:55:00
4:15 PM,88.7,66.6,48,29.97,10.0,NNE,6.9,-,N/A,,Clear,30,2013-07-13 21:15:00
4:35 PM,90.3,67.5,47,29.96,10.0,NE,6.9,-,N/A,,Clear,40,2013-07-13 21:35:00
4:55 PM,91.4,67.5,45,29.94,10.0,ENE,10.4,-,N/A,,Clear,70,2013-07-13 21:55:00
5:15 PM,92.7,67.1,43,29.94,10.0,NE,9.2,-,N/A,,Clear,40,2013-07-13 22:15:00
5:35 PM,92.1,67.3,44,29.94,10.0,NNE,6.9,-,N/A,,Clear,20,2013-07-13 22:35:00
5:55 PM,92.3,67.1,43,29.94,10.0,NE,8.1,-,N/A,,Clear,40,2013-07-13 22:55:00
6:15 PM,92.5,67.5,44,29.94,10.0,NE,6.9,-,N/A,,Clear,40,2013-07-13 23:15:00
6:35 PM,92.7,67.6,44,29.93,10.0,NNE,4.6,-,N/A,,Clear,30,2013-07-13 23:35:00
6:55 PM,92.7,67.6,44,29.92,10.0,NE,6.9,-,N/A,,Clear,40,2013-07-13 23:55:00
7:15 PM,92.3,67.8,44,29.92,10.0,NE,9.2,-,N/A,,Clear,40,2013-07-14 00:15:00
7:35 PM,89.8,68.9,50,29.92,10.0,NNE,11.5,-,N/A,,Clear,20,2013-07-14 00:35:00
7:55 PM,88.7,68.9,52,29.93,10.0,NNE,10.4,-,N/A,,Clear,30,2013-07-14 00:55:00
8:15 PM,88.0,69.1,53,29.94,10.0,NNE,9.2,-,N/A,,Clear,20,2013-07-14 01:15:00
8:35 PM,86.9,69.8,57,29.94,10.0,NNE,8.1,-,N/A,,Clear,30,2013-07-14 01:35:00
8:55 PM,86.0,70.2,59,29.94,10.0,NE,10.4,-,N/A,,Clear,40,2013-07-14 01:55:00
9:15 PM,85.3,70.7,62,29.95,10.0,NE,8.1,-,N/A,,Scattered Clouds,40,2013-07-14 02:15:00
9:35 PM,84.4,70.7,63,29.95,10.0,ENE,6.9,-,N/A,,Scattered Clouds,60,2013-07-14 02:35:00
9:55 PM,83.3,70.9,66,29.95,10.0,NE,6.9,-,N/A,,Clear,50,2013-07-14 02:55:00
10:15 PM,82.4,71.1,68,29.95,10.0,NE,6.9,-,N/A,,Clear,50,2013-07-14 03:15:00
10:35 PM,81.3,71.6,72,29.96,10.0,NNE,4.6,-,N/A,,Clear,30,2013-07-14 03:35:00
10:55 PM,80.4,71.6,74,29.96,10.0,NE,6.9,-,N/A,,Clear,40,2013-07-14 03:55:00
11:15 PM,80.1,71.6,75,29.96,10.0,NNE,4.6,-,N/A,,Clear,30,2013-07-14 04:15:00
11:35 PM,79.3,71.6,77,29.97,10.0,NNE,4.6,-,N/A,,Clear,30,2013-07-14 04:35:00
11:55 PM,79.2,71.6,78,29.97,10.0,NE,4.6,-,N/A,,Clear,50,2013-07-14 04:55:00